Time;durP1;ratioP1;P1;durP2;ratioP2;P2;SDS_P1;SDS_P2;PMS_P1;PMS_P2;Temp;Humidity;BMP_temperature;BMP_pressure;BME280_temperature;BME280_humidity;BME280_pressure;Samples;Min_cycle;Max_cycle;Signal;HPM_P1;HPM_P2
2022/07/23 00:02:14;;;;;;;;;21.00;20.00;;;;;23.22;64.16;101376.91;5021346;28;50277;-75
2022/07/23 00:04:39;;;;;;;;;23.50;22.50;;;;;23.20;64.24;101374.31;5019140;28;45162;-75
2022/07/23 00:07:05;;;;;;;;;20.00;20.00;;;;;23.15;63.90;101365.63;5021610;28;45220;-75
2022/07/23 00:09:31;;;;;;;;;18.50;18.00;;;;;23.10;63.89;101360.53;5021016;28;46180;-75
2022/07/23 00:11:56;;;;;;;;;24.00;21.75;;;;;23.18;64.27;101375.41;5017434;28;45473;-75
2022/07/23 00:14:21;;;;;;;;;22.00;21.00;;;;;23.18;64.28;101373.56;5018364;28;45978;-75
2022/07/23 00:16:47;;;;;;;;;19.75;19.75;;;;;23.20;64.58;101373.44;5020402;28;45462;-75
2022/07/23 00:19:12;;;;;;;;;25.00;21.25;;;;;23.20;64.34;101373.44;5020708;28;46151;-75
2022/07/23 00:21:37;;;;;;;;;26.25;23.00;;;;;23.19;64.56;101375.31;5021222;28;45433;-75
2022/07/23 00:24:03;;;;;;;;;25.25;22.25;;;;;23.19;64.25;101380.75;5021175;28;45291;-75
2022/07/23 00:26:28;;;;;;;;;17.50;17.50;;;;;23.17;64.27;101377.28;5020673;28;45292;-75
2022/07/23 00:28:54;;;;;;;;;26.25;22.25;;;;;23.05;64.46;101356.38;5020771;28;45853;-75
2022/07/23 00:31:19;;;;;;;;;23.75;21.75;;;;;23.16;64.44;101366.50;5021073;28;45530;-75
2022/07/23 00:33:44;;;;;;;;;23.75;19.50;;;;;23.18;64.08;101367.25;5021035;28;45429;-75
2022/07/23 00:36:10;;;;;;;;;23.50;22.50;;;;;23.15;64.23;101359.31;5021148;28;45438;-75
2022/07/23 00:38:35;;;;;;;;;23.25;20.50;;;;;23.19;63.92;101361.69;5020729;28;45299;-75
2022/07/23 00:41:00;;;;;;;;;24.25;21.75;;;;;23.17;64.42;101363.66;5017792;28;45274;-75
2022/07/23 00:43:26;;;;;;;;;20.00;19.75;;;;;23.18;64.08;101359.94;5020629;28;45533;-75
2022/07/23 00:45:51;;;;;;;;;23.00;21.75;;;;;23.19;64.24;101367.13;5020988;28;45429;-76
2022/07/23 00:48:16;;;;;;;;;21.25;21.25;;;;;23.19;63.72;101363.53;5020531;28;45292;-75
2022/07/23 00:50:43;;;;;;;;;23.00;21.00;;;;;23.16;63.89;101361.06;5020793;28;45224;-75
2022/07/23 00:53:09;;;;;;;;;22.50;21.00;;;;;23.16;63.82;101361.06;5020551;28;45237;-75
2022/07/23 00:55:34;;;;;;;;;19.50;17.00;;;;;23.16;63.96;101353.75;5020709;28;45336;-75
2022/07/23 00:58:01;;;;;;;;;20.00;18.75;;;;;23.10;63.89;101352.38;5019752;28;45409;-75
2022/07/23 01:00:26;;;;;;;;;22.75;20.25;;;;;23.15;63.74;101359.31;5010589;28;45414;-75
2022/07/23 01:02:52;;;;;;;;;21.75;21.00;;;;;23.12;64.16;101363.13;5015877;28;45380;-75
2022/07/23 01:05:21;;;;;;;;;23.75;21.00;;;;;23.10;64.17;101357.81;5020252;28;45518;-75
2022/07/23 01:07:47;;;;;;;;;19.75;18.25;;;;;23.04;63.95;101352.78;5020223;28;46162;-75
2022/07/23 01:10:31;;;;;;;;;24.50;24.50;;;;;23.06;64.53;101353.56;5020334;28;45284;-75
2022/07/23 01:13:04;;;;;;;;;21.00;19.00;;;;;23.12;64.30;101360.41;5013314;28;45238;-75
2022/07/23 01:15:30;;;;;;;;;23.25;23.25;;;;;23.10;64.26;101359.66;5020483;28;45303;-75
2022/07/23 01:17:55;;;;;;;;;26.50;24.25;;;;;23.11;64.86;101353.22;5020069;28;45412;-76
2022/07/23 01:20:21;;;;;;;;;27.00;26.00;;;;;23.16;64.57;101355.63;5019848;28;45370;-76
2022/07/23 01:22:46;;;;;;;;;27.50;21.75;;;;;23.09;64.75;101347.91;5020306;28;45345;-76
2022/07/23 01:25:12;;;;;;;;;28.75;26.50;;;;;23.10;65.23;101349.66;5020032;28;45153;-75
2022/07/23 01:27:38;;;;;;;;;33.00;29.75;;;;;23.15;64.94;101360.16;5019703;28;46435;-75
2022/07/23 01:30:04;;;;;;;;;26.25;25.50;;;;;23.17;65.08;101358.22;5019128;28;45478;-75
2022/07/23 01:32:29;;;;;;;;;33.50;30.50;;;;;23.19;65.12;101358.06;5020089;28;45320;-75
2022/07/23 01:34:55;;;;;;;;;27.50;24.50;;;;;23.18;64.96;101348.19;5020036;28;45174;-75
2022/07/23 01:37:20;;;;;;;;;35.00;30.25;;;;;23.24;64.84;101358.63;5019855;28;45233;-75
2022/07/23 01:39:45;;;;;;;;;31.25;28.75;;;;;23.23;65.22;101355.00;5019767;28;45285;-74
2022/07/23 01:42:11;;;;;;;;;29.00;28.00;;;;;23.26;64.75;101352.06;5019884;28;45211;-75
2022/07/23 01:44:36;;;;;;;;;36.25;32.25;;;;;23.27;64.78;101355.63;5019948;28;45367;-75
2022/07/23 01:47:02;;;;;;;;;32.00;30.50;;;;;23.29;65.32;101351.81;5019792;28;46090;-75
2022/07/23 01:49:27;;;;;;;;;27.00;26.00;;;;;23.29;65.29;101345.53;5019451;28;45430;-75
2022/07/23 01:52:01;;;;;;;;;27.75;27.75;;;;;23.28;64.97;101349.22;5018489;28;45812;-75
2022/07/23 01:54:33;;;;;;;;;28.25;27.50;;;;;23.35;64.85;101353.19;5013035;28;45464;-75
2022/07/23 01:56:59;;;;;;;;;31.50;25.75;;;;;23.35;65.11;101352.34;5019295;28;46578;-75
2022/07/23 01:59:24;;;;;;;;;33.25;31.75;;;;;23.28;65.37;101339.19;5019307;28;46668;-75
2022/07/23 02:01:53;;;;;;;;;26.75;25.00;;;;;23.30;65.20;101345.41;5007030;28;45233;-75
2022/07/23 02:04:20;;;;;;;;;28.25;27.50;;;;;23.30;65.15;101339.97;5019640;28;45532;-75
2022/07/23 02:06:46;;;;;;;;;31.75;29.75;;;;;23.34;65.16;101347.88;5019781;28;46420;-75
2022/07/23 02:09:12;;;;;;;;;27.50;27.00;;;;;23.34;65.27;101353.31;5019428;28;45304;-76
2022/07/23 02:11:38;;;;;;;;;24.75;24.00;;;;;23.28;65.15;101344.63;5019564;28;45343;-75
2022/07/23 02:14:03;;;;;;;;;35.25;31.50;;;;;23.36;65.29;101359.53;5019651;28;45241;-75
2022/07/23 02:16:29;;;;;;;;;31.00;30.00;;;;;23.34;65.27;101346.03;5019636;28;46192;-75
2022/07/23 02:18:54;;;;;;;;;32.50;29.25;;;;;23.35;65.04;101345.03;5019284;28;45311;-76
2022/07/23 02:21:20;;;;;;;;;26.25;24.00;;;;;23.36;65.05;101354.09;5018608;28;45437;-75
2022/07/23 02:23:45;;;;;;;;;25.25;25.25;;;;;23.35;65.08;101345.03;5018211;28;45779;-76
2022/07/23 02:26:10;;;;;;;;;28.25;27.50;;;;;23.36;64.84;101352.22;5018993;28;45230;-75
2022/07/23 02:28:36;;;;;;;;;28.75;28.00;;;;;23.35;65.05;101346.88;5019294;28;45261;-75
2022/07/23 02:31:01;;;;;;;;;27.50;25.75;;;;;23.40;64.69;101356.44;5019593;28;45416;-75
2022/07/23 02:33:27;;;;;;;;;28.25;28.25;;;;;23.39;65.02;101356.56;5019229;28;45362;-76
2022/07/23 02:35:52;;;;;;;;;29.75;26.50;;;;;23.42;64.93;101370.84;5019408;28;45929;-76
2022/07/23 02:38:17;;;;;;;;;31.00;28.75;;;;;23.40;64.84;101369.19;5017914;28;45475;-76
2022/07/23 02:40:43;;;;;;;;;27.50;24.75;;;;;23.42;64.62;101369.94;5019063;28;45820;-75
2022/07/23 02:43:08;;;;;;;;;24.25;24.25;;;;;23.42;64.58;101362.66;5018900;28;45416;-76
2022/07/23 02:45:33;;;;;;;;;21.25;21.25;;;;;23.42;64.35;101372.66;5019235;28;45324;-75
2022/07/23 02:47:59;;;;;;;;;24.75;23.00;;;;;23.40;64.58;101369.19;5019269;28;45471;-75
2022/07/23 02:50:24;;;;;;;;;20.50;20.50;;;;;23.41;65.04;101370.94;5019131;28;45424;-75
2022/07/23 02:52:50;;;;;;;;;22.00;21.75;;;;;23.44;64.46;101377.03;5017833;28;45531;-75
2022/07/23 02:55:15;;;;;;;;;22.50;21.50;;;;;23.41;64.06;101363.63;5018506;28;46273;-75
2022/07/23 02:57:41;;;;;;;;;20.50;19.25;;;;;23.38;63.85;101366.59;5018721;28;45415;-75
2022/07/23 03:00:07;;;;;;;;;22.50;20.00;;;;;23.43;64.18;101372.56;5013280;28;45377;-75
2022/07/23 03:02:32;;;;;;;;;23.50;21.00;;;;;23.38;64.24;101376.63;5013805;28;45146;-75
2022/07/23 03:04:58;;;;;;;;;20.75;20.00;;;;;23.39;64.19;101383.78;5021089;28;45316;-75
2022/07/23 03:07:23;;;;;;;;;19.25;18.00;;;;;23.37;63.96;101383.94;5022307;28;45255;-75
2022/07/23 03:09:49;;;;;;;;;19.50;18.50;;;;;23.38;63.75;101388.38;5021990;28;45403;-75
2022/07/23 03:12:14;;;;;;;;;20.00;19.75;;;;;23.37;63.80;101397.56;5022091;28;45304;-75
2022/07/23 03:14:40;;;;;;;;;21.75;19.75;;;;;23.38;63.60;101392.97;5022064;28;45270;-75
2022/07/23 03:17:06;;;;;;;;;20.75;19.00;;;;;23.38;63.85;101398.41;5022471;28;45182;-75
2022/07/23 03:19:31;;;;;;;;;19.00;17.75;;;;;23.36;63.81;101397.69;5021978;28;45505;-75
2022/07/23 03:21:56;;;;;;;;;24.25;21.75;;;;;23.35;63.81;101395.91;5021245;28;46730;-75
2022/07/23 03:24:23;;;;;;;;;16.00;13.75;;;;;23.33;63.70;101395.19;5021719;28;46084;-75
2022/07/23 03:26:49;;;;;;;;;22.00;21.50;;;;;23.31;63.95;101393.44;5021804;28;45445;-75
2022/07/23 03:29:15;;;;;;;;;18.25;17.75;;;;;23.30;64.09;101393.53;5022100;28;45481;-75
2022/07/23 03:31:40;;;;;;;;;23.00;22.00;;;;;23.27;63.83;101388.31;5020914;28;46323;-75
2022/07/23 03:34:05;;;;;;;;;24.00;22.75;;;;;23.27;64.00;101397.38;5021769;28;45339;-75
2022/07/23 03:36:31;;;;;;;;;20.75;20.75;;;;;23.28;64.15;101403.69;5021973;28;45432;-75
2022/07/23 03:38:56;;;;;;;;;23.00;21.75;;;;;23.25;63.75;101399.31;5021967;28;45469;-75
2022/07/23 03:41:22;;;;;;;;;20.50;20.00;;;;;23.27;64.04;101402.84;5021691;28;45205;-75
2022/07/23 03:43:47;;;;;;;;;29.00;24.25;;;;;23.25;64.17;101398.47;5021251;28;46385;-75
2022/07/23 03:46:12;;;;;;;;;25.25;24.75;;;;;23.26;64.28;101405.66;5017306;28;45368;-75
2022/07/23 03:48:38;;;;;;;;;29.25;25.50;;;;;23.26;64.45;101402.94;5021430;28;45737;-75
2022/07/23 03:51:03;;;;;;;;;24.50;23.50;;;;;23.22;64.72;101398.69;5021654;28;45213;-74
2022/07/23 03:53:29;;;;;;;;;25.75;25.75;;;;;23.18;64.77;101399.94;5018275;28;46428;-75
2022/07/23 03:55:54;;;;;;;;;26.50;24.50;;;;;23.16;65.18;101410.94;5021296;28;45415;-75
2022/07/23 03:58:20;;;;;;;;;26.25;25.25;;;;;23.17;64.72;101412.69;5021568;28;46015;-75
2022/07/23 04:00:45;;;;;;;;;27.00;27.00;;;;;23.10;64.74;101414.09;5010112;28;45434;-75
2022/07/23 04:03:10;;;;;;;;;25.75;25.00;;;;;23.06;64.88;101409.84;5019343;28;45330;-75
2022/07/23 04:05:36;;;;;;;;;9.00;8.50;;;;;23.00;64.50;101408.44;5021453;28;45336;-75
2022/07/23 04:08:01;;;;;;;;;29.00;22.75;;;;;23.00;64.32;101399.41;5021529;28;45257;-75
2022/07/23 04:10:26;;;;;;;;;20.75;20.75;;;;;23.03;64.44;101408.22;5021253;28;45595;-75
2022/07/23 04:12:52;;;;;;;;;27.00;26.50;;;;;23.01;64.37;101414.78;5020575;28;46259;-75
2022/07/23 04:15:17;;;;;;;;;26.25;25.00;;;;;22.98;64.41;101407.69;5021353;28;45360;-75
2022/07/23 04:17:43;;;;;;;;;22.50;21.75;;;;;23.00;64.59;101408.44;5021442;28;45529;-75
2022/07/23 04:20:10;;;;;;;;;23.25;22.50;;;;;23.02;64.61;101414.66;5021021;28;45434;-75
2022/07/23 04:22:36;;;;;;;;;19.50;17.00;;;;;23.03;64.71;101426.41;5018889;28;45510;-75
2022/07/23 04:25:01;;;;;;;;;25.50;22.25;;;;;23.00;64.56;101422.06;5019725;28;45584;-75
2022/07/23 04:27:26;;;;;;;;;23.75;21.00;;;;;22.97;64.30;101411.41;5018945;28;45271;-75
2022/07/23 04:29:52;;;;;;;;;16.25;16.25;;;;;23.00;64.55;101421.19;5020650;28;45527;-75
2022/07/23 04:32:17;;;;;;;;;21.75;20.75;;;;;22.96;64.56;101425.13;5020823;28;46449;-75
2022/07/23 04:34:42;;;;;;;;;26.00;24.25;;;;;22.93;64.12;101423.50;5020978;28;45208;-75
2022/07/23 04:37:08;;;;;;;;;23.00;20.50;;;;;22.87;64.19;101421.22;5021083;28;45295;-75
2022/07/23 04:39:33;;;;;;;;;19.00;19.00;;;;;22.87;64.54;101426.66;5020794;28;45196;-75
2022/07/23 04:41:58;;;;;;;;;25.50;22.50;;;;;22.87;64.48;101422.13;5005927;28;45212;-75
2022/07/23 04:44:24;;;;;;;;;20.50;20.50;;;;;22.82;64.95;101416.16;5019859;28;45146;-75
2022/07/23 04:46:49;;;;;;;;;23.75;19.25;;;;;22.82;64.50;101420.69;5020819;28;45705;-75
2022/07/23 04:49:14;;;;;;;;;23.50;19.75;;;;;22.83;64.31;101430.59;5020962;28;45252;-75
2022/07/23 04:51:40;;;;;;;;;19.50;18.50;;;;;22.84;64.30;101426.91;5018075;28;48812;-75
2022/07/23 04:54:05;;;;;;;;;19.50;18.25;;;;;22.84;64.06;101430.50;5020558;28;45208;-75
2022/07/23 04:56:30;;;;;;;;;17.50;15.00;;;;;22.82;63.97;101431.56;5020708;28;45217;-75
2022/07/23 04:58:56;;;;;;;;;23.00;19.25;;;;;22.81;64.00;101430.72;5020826;28;45512;-75
2022/07/23 05:01:21;;;;;;;;;16.50;16.00;;;;;22.76;64.00;101430.19;5018002;28;46949;-75
2022/07/23 05:03:48;;;;;;;;;15.00;15.00;;;;;22.80;63.55;101433.56;5020458;28;46094;-75
2022/07/23 05:06:13;;;;;;;;;14.75;12.75;;;;;22.80;63.99;101433.56;5020616;28;45483;-75
2022/07/23 05:08:39;;;;;;;;;14.50;14.50;;;;;22.82;63.50;101440.63;5020651;28;45405;-75
2022/07/23 05:11:04;;;;;;;;;18.75;18.00;;;;;22.83;63.52;101436.91;5017786;28;47089;-75
2022/07/23 05:13:30;;;;;;;;;14.00;14.00;;;;;22.78;63.50;101433.66;5019623;28;45494;-73
2022/07/23 05:15:56;;;;;;;;;21.25;17.25;;;;;22.80;63.41;101437.13;5020213;28;45299;-71
2022/07/23 05:18:21;;;;;;;;;16.75;15.75;;;;;22.78;62.91;101436.38;5010221;28;45727;-71
2022/07/23 05:20:47;;;;;;;;;17.25;16.25;;;;;22.80;63.62;101428.97;5014752;28;45973;-71
2022/07/23 05:23:12;;;;;;;;;15.00;13.00;;;;;22.83;63.55;101436.06;5016317;28;45304;-70
2022/07/23 05:25:37;;;;;;;;;22.25;20.00;;;;;22.83;63.92;101436.91;5019455;28;45214;-71
2022/07/23 05:28:03;;;;;;;;;16.25;12.50;;;;;22.85;63.66;101439.53;5020175;28;45154;-70
2022/07/23 05:30:28;;;;;;;;;20.25;19.00;;;;;22.79;63.66;101435.41;5021147;28;46232;-70
2022/07/23 05:32:54;;;;;;;;;20.00;19.00;;;;;22.75;63.58;101423.88;5020132;28;45158;-71
2022/07/23 05:35:19;;;;;;;;;17.25;17.25;;;;;22.72;63.93;101431.38;5020197;28;45527;-69
2022/07/23 05:37:45;;;;;;;;;19.25;17.50;;;;;22.74;63.61;101433.03;5019224;28;45248;-70
2022/07/23 05:40:11;;;;;;;;;19.00;16.25;;;;;22.66;63.67;101421.81;5019874;28;45350;-69
2022/07/23 05:42:38;;;;;;;;;19.50;18.25;;;;;22.74;63.53;101429.44;5017992;28;45463;-70
2022/07/23 05:45:05;;;;;;;;;16.50;16.50;;;;;22.76;63.66;101433.78;5019814;28;45275;-71
2022/07/23 05:47:45;;;;;;;;;22.00;17.75;;;;;22.75;63.41;101431.16;5018641;28;45543;-70
2022/07/23 05:50:11;;;;;;;;;19.00;18.75;;;;;22.79;63.73;101432.69;5017559;28;45475;-70
2022/07/23 05:52:38;;;;;;;;;18.00;16.00;;;;;22.80;63.17;101442.56;5019231;28;45494;-69
2022/07/23 05:55:06;;;;;;;;;22.50;21.75;;;;;22.83;63.54;101447.81;5019723;28;45318;-70
2022/07/23 05:57:31;;;;;;;;;21.00;20.25;;;;;22.78;63.43;101436.38;5018146;28;45482;-69
2022/07/23 05:59:56;;;;;;;;;16.50;16.00;;;;;22.79;63.78;101445.41;5014950;28;45262;-69
2022/07/23 06:02:22;;;;;;;;;18.75;17.75;;;;;22.75;63.48;101448.38;5018062;28;45304;-72
2022/07/23 06:04:47;;;;;;;;;18.75;18.75;;;;;22.75;63.91;101444.75;5010813;28;45504;-72
2022/07/23 06:07:12;;;;;;;;;25.50;21.75;;;;;22.80;63.98;101453.47;4998342;28;45483;-73
2022/07/23 06:09:38;;;;;;;;;23.25;21.00;;;;;22.82;64.08;101453.34;5017040;28;45182;-72
2022/07/23 06:12:03;;;;;;;;;23.50;22.75;;;;;22.81;63.80;101455.22;5014055;28;45408;-72
2022/07/23 06:14:29;;;;;;;;;24.50;22.25;;;;;22.81;64.05;101449.78;5014932;28;47065;-72
2022/07/23 06:16:54;;;;;;;;;23.00;23.00;;;;;22.78;64.05;101451.84;5018980;28;45249;-72
2022/07/23 06:19:19;;;;;;;;;28.00;25.75;;;;;22.76;64.15;101454.69;5016575;28;47113;-70
2022/07/23 06:21:44;;;;;;;;;25.50;22.50;;;;;22.72;63.91;101461.31;5019282;28;45213;-79
2022/07/23 06:24:10;;;;;;;;;31.25;29.75;;;;;22.66;64.13;101453.63;5017976;28;45268;-77
2022/07/23 06:26:35;;;;;;;;;37.75;31.50;;;;;22.64;64.46;101451.00;5017501;28;45245;-77
2022/07/23 06:29:00;;;;;;;;;30.75;29.00;;;;;22.69;64.21;101469.72;5018552;28;45282;-76
2022/07/23 06:31:26;;;;;;;;;28.50;27.25;;;;;22.72;64.51;101473.09;5018934;28;45367;-76
2022/07/23 06:33:51;;;;;;;;;29.75;28.50;;;;;22.70;64.50;101475.06;5019261;28;45307;-76
2022/07/23 06:36:17;;;;;;;;;32.00;27.75;;;;;22.78;64.83;101489.97;5015521;28;45466;-75
2022/07/23 06:38:42;;;;;;;;;28.75;28.75;;;;;22.70;64.60;101477.78;5019610;28;48448;-75
2022/07/23 06:41:07;;;;;;;;;30.00;28.00;;;;;22.75;64.81;101491.03;5022084;28;45624;-74
2022/07/23 06:43:33;;;;;;;;;32.75;29.75;;;;;22.73;63.98;101488.41;5017856;28;45234;-74
2022/07/23 06:45:58;;;;;;;;;29.00;27.25;;;;;22.73;64.38;101491.13;5010926;28;45485;-74
2022/07/23 06:48:23;;;;;;;;;31.25;30.00;;;;;22.72;64.59;101497.59;5020474;28;46271;-74
2022/07/23 06:50:49;;;;;;;;;35.75;31.75;;;;;22.71;64.45;101490.38;5009498;28;45649;-74
2022/07/23 06:53:14;;;;;;;;;35.50;31.75;;;;;22.74;64.60;101498.34;5016851;28;45442;-75
2022/07/23 06:55:40;;;;;;;;;38.25;32.25;;;;;22.69;64.41;101483.34;5020914;28;45290;-75
2022/07/23 06:58:05;;;;;;;;;37.50;32.25;;;;;22.66;64.08;101480.81;5021714;28;46194;-74
2022/07/23 07:00:32;;;;;;;;;32.00;28.00;;;;;22.72;64.63;101491.25;5017425;28;45415;-75
2022/07/23 07:02:57;;;;;;;;;32.50;30.75;;;;;22.75;64.91;101491.91;5018309;28;45309;-74
2022/07/23 07:05:25;;;;;;;;;31.00;29.50;;;;;22.77;64.46;101491.81;5022213;28;45208;-73
2022/07/23 07:07:50;;;;;;;;;35.25;32.50;;;;;22.79;64.59;101499.84;5021911;28;45315;-79
2022/07/23 07:10:17;;;;;;;;;36.00;31.75;;;;;22.82;64.86;101503.25;5021945;28;45268;-78
2022/07/23 07:12:42;;;;;;;;;36.75;33.00;;;;;22.83;64.45;101506.81;5029325;28;45442;-65
2022/07/23 07:15:08;;;;;;;;;37.00;30.75;;;;;22.86;64.45;101510.19;5021584;28;45486;-65
2022/07/23 07:17:33;;;;;;;;;38.00;32.50;;;;;22.89;64.49;101511.84;5021780;28;45367;-65
2022/07/23 07:19:58;;;;;;;;;41.75;34.75;;;;;22.89;64.39;101518.13;5020526;28;45347;-65
2022/07/23 07:22:24;;;;;;;;;39.75;35.00;;;;;22.90;64.45;101519.88;5021648;28;45353;-65
2022/07/23 07:24:49;;;;;;;;;38.00;35.00;;;;;22.90;64.34;101525.34;5021302;28;45463;-65
2022/07/23 07:27:14;;;;;;;;;35.50;32.00;;;;;22.92;64.47;101526.09;5021653;28;46137;-65
2022/07/23 07:29:40;;;;;;;;;41.50;34.00;;;;;22.94;64.24;101532.28;5021859;28;45351;-65
2022/07/23 07:32:05;;;;;;;;;35.75;28.25;;;;;22.94;64.09;101532.28;5020672;28;45391;-65
2022/07/23 07:34:31;;;;;;;;;46.25;37.25;;;;;22.94;64.38;101528.69;5021977;28;45360;-65
2022/07/23 07:36:56;;;;;;;;;42.75;34.75;;;;;22.98;64.39;101532.06;5021591;28;46169;-65
2022/07/23 07:39:21;;;;;;;;;40.75;33.75;;;;;22.98;64.70;101535.66;5021540;28;45316;-65
2022/07/23 07:41:47;;;;;;;;;41.75;34.00;;;;;22.99;63.93;101533.78;5021351;28;45321;-65
2022/07/23 07:44:12;;;;;;;;;37.50;34.50;;;;;22.96;64.55;101525.88;5019061;28;46228;-65
2022/07/23 07:46:37;;;;;;;;;42.50;36.25;;;;;23.00;64.42;101533.69;5020891;28;45257;-65
2022/07/23 07:49:02;;;;;;;;;44.00;36.50;;;;;23.00;64.47;101539.13;5020333;28;45486;-65
2022/07/23 07:51:28;;;;;;;;;41.75;35.25;;;;;22.98;64.15;101534.78;5019245;28;46711;-66
2022/07/23 07:53:54;;;;;;;;;39.00;34.00;;;;;22.97;64.20;101530.31;5018809;28;45712;-66
2022/07/23 07:56:19;;;;;;;;;42.75;36.50;;;;;22.98;64.23;101535.66;5021560;28;46316;-66
2022/07/23 07:58:44;;;;;;;;;45.50;35.75;;;;;22.99;64.14;101536.50;5021489;28;46298;-65
2022/07/23 08:01:10;;;;;;;;;45.25;35.75;;;;;23.03;64.00;101543.50;5007969;28;45289;-66
2022/07/23 08:03:35;;;;;;;;;38.25;33.75;;;;;22.98;64.11;101541.09;5019422;28;45245;-65
2022/07/23 08:06:00;;;;;;;;;40.50;36.50;;;;;23.07;64.51;101547.75;5019417;28;48826;-66
2022/07/23 08:08:26;;;;;;;;;38.50;34.00;;;;;23.01;64.31;101543.59;5018807;28;45438;-66
2022/07/23 08:10:51;;;;;;;;;44.00;36.75;;;;;23.01;64.79;101546.31;5020250;28;45470;-65
2022/07/23 08:13:17;;;;;;;;;49.75;36.75;;;;;23.03;64.70;101546.22;5020689;28;45478;-65
2022/07/23 08:15:43;;;;;;;;;43.75;36.50;;;;;23.06;64.42;101546.00;5020940;28;46748;-65
2022/07/23 08:18:09;;;;;;;;;45.00;36.25;;;;;23.11;64.53;101554.72;5018484;28;45645;-65
2022/07/23 08:20:34;;;;;;;;;41.75;35.25;;;;;23.15;64.40;101556.25;5020813;28;45344;-65
2022/07/23 08:23:04;;;;;;;;;42.75;32.00;;;;;23.18;64.25;101555.16;5021161;28;45458;-65
2022/07/23 08:25:42;;;;;;;;;43.50;34.00;;;;;23.22;64.23;101560.28;5020619;28;46216;-65
2022/07/23 08:28:10;;;;;;;;;41.00;31.75;;;;;23.23;64.19;101563.88;5019133;28;45412;-65
2022/07/23 08:30:37;;;;;;;;;38.00;33.25;;;;;23.21;64.08;101558.53;5021194;28;45426;-65
2022/07/23 08:33:11;;;;;;;;;37.50;31.25;;;;;23.27;63.62;101571.72;5020979;28;45268;-66
2022/07/23 08:35:42;;;;;;;;;38.50;32.00;;;;;23.28;63.47;101572.56;5020808;28;46914;-65
2022/07/23 08:38:09;;;;;;;;;38.00;32.75;;;;;23.31;63.46;101575.06;5019960;28;45659;-65
2022/07/23 08:40:37;;;;;;;;;34.00;30.75;;;;;23.31;63.84;101567.75;5020706;28;45314;-65
2022/07/23 08:43:14;;;;;;;;;41.75;35.75;;;;;23.34;63.52;101572.13;5020152;28;45307;-66
2022/07/23 08:45:42;;;;;;;;;34.25;31.00;;;;;23.35;64.06;101578.44;5020956;28;45455;-65
2022/07/23 08:48:20;;;;;;;;;30.25;27.75;;;;;23.36;63.89;101583.78;5019369;28;45949;-65
2022/07/23 08:50:48;;;;;;;;;44.25;35.25;;;;;23.38;63.45;101589.97;5021016;28;45419;-65
2022/07/23 08:53:15;;;;;;;;;43.25;36.50;;;;;23.40;63.09;101587.13;5020486;28;45501;-65
2022/07/23 08:55:44;;;;;;;;;38.25;33.50;;;;;23.40;62.92;101590.72;5020340;28;47148;-65
2022/07/23 08:58:09;;;;;;;;;37.00;33.00;;;;;23.39;63.15;101585.38;5017288;28;45436;-65
2022/07/23 09:00:35;;;;;;;;;42.75;37.00;;;;;23.42;63.77;101593.34;5017212;28;45498;-65
2022/07/23 09:03:00;;;;;;;;;36.75;33.00;;;;;23.42;63.28;101588.78;5020548;28;46643;-65
2022/07/23 09:05:26;;;;;;;;;35.75;30.75;;;;;23.45;63.30;101593.13;5020508;28;46187;-65
2022/07/23 09:08:10;;;;;;;;;38.50;34.00;;;;;23.45;63.46;101591.25;5020377;28;45319;-65
2022/07/23 09:11:00;;;;;;;;;43.00;35.75;;;;;23.45;63.29;101591.25;5018636;28;45320;-65
2022/07/23 09:13:36;;;;;;;;;33.50;29.75;;;;;23.48;63.34;101599.22;5015679;28;46338;-66
2022/07/23 09:16:10;;;;;;;;;38.00;34.75;;;;;23.47;63.28;101593.88;5020192;28;45327;-65
2022/07/23 09:18:47;;;;;;;;;40.25;32.50;;;;;23.46;63.55;101592.16;5019013;28;45706;-65
2022/07/23 09:21:19;;;;;;;;;33.50;31.00;;;;;23.44;63.51;101584.09;5006393;28;45252;-65
2022/07/23 09:23:46;;;;;;;;;35.00;32.50;;;;;23.46;63.20;101582.09;5019912;28;45459;-65
2022/07/23 09:26:23;;;;;;;;;35.00;30.25;;;;;23.46;62.95;101586.69;5020308;28;46108;-65
2022/07/23 09:28:56;;;;;;;;;35.75;30.50;;;;;23.46;62.79;101586.69;5018764;28;45336;-66
2022/07/23 09:31:23;;;;;;;;;34.75;30.50;;;;;23.47;62.82;101582.97;5020282;28;45224;-66
2022/07/23 09:33:48;;;;;;;;;35.25;30.00;;;;;23.47;62.67;101578.41;5019978;28;45351;-65
2022/07/23 09:36:13;;;;;;;;;37.25;31.75;;;;;23.49;62.81;101579.16;5020065;28;46070;-66
2022/07/23 09:38:50;;;;;;;;;36.00;32.50;;;;;23.50;62.95;101574.56;5017848;28;45395;-66
2022/07/23 09:41:15;;;;;;;;;32.00;30.25;;;;;23.55;62.63;101576.97;5019694;28;45359;-65
2022/07/23 09:43:41;;;;;;;;;32.75;30.00;;;;;23.55;62.59;101580.56;5019505;28;45311;-66
2022/07/23 09:46:24;;;;;;;;;33.75;29.50;;;;;23.59;62.52;101576.63;5019956;28;45513;-65
2022/07/23 09:48:51;;;;;;;;;33.75;30.00;;;;;23.63;61.85;101577.28;5007571;28;45224;-66
2022/07/23 09:53:58;;;;;;;;;30.50;28.25;;;;;23.60;61.89;101567.44;5019675;28;45296;-65
2022/07/23 09:56:24;;;;;;;;;25.75;24.75;;;;;23.71;61.88;101584.88;5019432;28;46264;-65
2022/07/23 09:58:52;;;;;;;;;26.25;25.50;;;;;23.75;61.60;101586.38;5018015;28;46163;-66
2022/07/23 10:01:17;;;;;;;;;37.25;32.50;;;;;23.74;61.93;101590.97;5006456;28;45328;-66
2022/07/23 10:03:44;;;;;;;;;27.00;25.00;;;;;23.79;61.39;101587.88;5017583;28;45536;-65
2022/07/23 10:06:11;;;;;;;;;29.75;28.75;;;;;23.83;61.37;101582.13;5018733;28;45330;-65
2022/07/23 10:08:41;;;;;;;;;29.50;28.25;;;;;23.82;61.04;101574.06;5019705;28;45440;-66
2022/07/23 10:11:08;;;;;;;;;35.00;30.25;;;;;23.86;61.02;101583.75;5020432;28;45331;-66
2022/07/23 10:16:19;;;;;;;;;35.00;32.25;;;;;23.88;61.24;101583.66;5021875;28;45667;-65
2022/07/23 10:18:45;;;;;;;;;34.00;28.25;;;;;23.87;61.38;101574.56;5022791;28;45597;-65
2022/07/23 10:21:20;;;;;;;;;33.50;31.25;;;;;23.86;61.95;101576.44;5010127;28;45209;-66
2022/07/23 10:24:08;;;;;;;;;34.75;31.75;;;;;23.90;62.00;101577.06;5022785;28;45186;-66
2022/07/23 10:27:04;;;;;;;;;26.75;26.00;;;;;23.92;61.41;101575.09;5014257;28;46261;-65
2022/07/23 10:29:52;;;;;;;;;29.75;28.00;;;;;23.95;61.17;101588.50;5011806;28;45327;-66
2022/07/23 10:32:29;;;;;;;;;32.50;30.50;;;;;23.96;61.83;101576.63;5022976;28;45450;-66
2022/07/23 10:35:30;;;;;;;;;33.00;30.25;;;;;23.97;62.24;101574.75;5021875;28;45241;-65
2022/07/23 10:38:07;;;;;;;;;41.75;33.25;;;;;23.97;62.04;101575.66;5019554;28;45566;-65
2022/07/23 10:40:32;;;;;;;;;32.00;29.75;;;;;23.95;62.35;101574.00;5020024;28;45220;-65
2022/07/23 10:43:00;;;;;;;;;40.75;32.75;;;;;23.98;61.62;101576.50;5022485;28;45458;-65
2022/07/23 10:45:31;;;;;;;;;36.00;32.25;;;;;24.05;61.21;101594.13;5010027;28;45418;-65
2022/07/23 10:48:18;;;;;;;;;34.50;30.50;;;;;24.08;61.21;101593.03;5021224;28;46351;-65
2022/07/23 10:51:08;;;;;;;;;33.75;30.25;;;;;24.08;61.18;101593.03;5022653;28;45345;-65
2022/07/23 10:53:52;;;;;;;;;36.50;31.50;;;;;24.10;61.10;101591.91;5009666;28;45617;-66
2022/07/23 10:56:56;;;;;;;;;31.00;28.50;;;;;24.12;60.86;101589.94;5020812;28;45557;-65
2022/07/23 10:59:21;;;;;;;;;28.00;27.50;;;;;24.11;60.60;101587.34;5022484;28;45405;-65
2022/07/23 11:01:47;;;;;;;;;26.00;24.50;;;;;24.15;60.77;101595.16;5009188;28;45372;-65
2022/07/23 11:04:13;;;;;;;;;28.00;26.75;;;;;24.15;60.95;101595.16;5022484;28;45280;-66
2022/07/23 11:06:50;;;;;;;;;26.00;25.25;;;;;24.20;60.51;101609.31;5021475;28;45301;-66
2022/07/23 11:09:30;;;;;;;;;27.75;27.25;;;;;24.22;59.83;101611.94;5022040;28;46042;-65
2022/07/23 11:12:13;;;;;;;;;26.50;24.00;;;;;24.25;59.84;101619.88;5018053;28;45488;-65
2022/07/23 11:14:57;;;;;;;;;31.50;29.50;;;;;24.26;60.92;101621.63;5021667;28;45299;-66
2022/07/23 11:17:25;;;;;;;;;28.50;25.75;;;;;24.26;60.34;101624.38;5019657;28;45680;-65